sensor_id;sensor_type;location;lat;lon;timestamp;pressure;altitude;pressure_sealevel;temperature;humidity
77281;BME280;66339;47.262;17.144;2023-08-06T00:01:45;98956.09;;;22.08;63.71
77281;BME280;66339;47.262;17.144;2023-08-06T00:04:14;98952.62;;;22.07;63.68
77281;BME280;66339;47.262;17.144;2023-08-06T00:06:53;98956.87;;;22.08;63.70
77281;BME280;66339;47.262;17.144;2023-08-06T00:09:21;98951.50;;;22.08;63.60
77281;BME280;66339;47.262;17.144;2023-08-06T00:11:51;98956.09;;;22.08;63.67
77281;BME280;66339;47.262;17.144;2023-08-06T00:14:19;98957.72;;;22.09;63.64
77281;BME280;66339;47.262;17.144;2023-08-06T00:16:50;98966.88;;;22.08;63.66
77281;BME280;66339;47.262;17.144;2023-08-06T00:19:20;98968.47;;;22.09;63.66
77281;BME280;66339;47.262;17.144;2023-08-06T00:21:52;98960.41;;;22.09;63.61
77281;BME280;66339;47.262;17.144;2023-08-06T00:30:18;98962.63;;;22.06;63.70
77281;BME280;66339;47.262;17.144;2023-08-06T00:32:53;98964.19;;;22.08;63.54
77281;BME280;66339;47.262;17.144;2023-08-06T00:35:22;98965.31;;;22.06;63.62
77281;BME280;66339;47.262;17.144;2023-08-06T00:40:42;98964.19;;;22.08;63.63
77281;BME280;66339;47.262;17.144;2023-08-06T00:43:10;98965.31;;;22.06;63.55
77281;BME280;66339;47.262;17.144;2023-08-06T00:48:41;98959.91;;;22.06;63.70
77281;BME280;66339;47.262;17.144;2023-08-06T00:54:25;98952.97;;;22.05;63.70
77281;BME280;66339;47.262;17.144;2023-08-06T01:00:06;98962.94;;;22.05;63.67
77281;BME280;66339;47.262;17.144;2023-08-06T01:05:40;98968.00;;;22.06;63.69
77281;BME280;66339;47.262;17.144;2023-08-06T01:22:56;98972.91;;;22.04;63.67
77281;BME280;66339;47.262;17.144;2023-08-06T01:31:42;98976.72;;;22.03;63.66
77281;BME280;66339;47.262;17.144;2023-08-06T01:42:42;98976.72;;;22.03;63.35
77281;BME280;66339;47.262;17.144;2023-08-06T01:54:10;98965.94;;;22.03;63.32
77281;BME280;66339;47.262;17.144;2023-08-06T02:20:42;98938.09;;;21.99;63.52
77281;BME280;66339;47.262;17.144;2023-08-06T02:23:16;98936.53;;;21.98;63.56
77281;BME280;66339;47.262;17.144;2023-08-06T02:31:52;98940.78;;;21.99;63.53
77281;BME280;66339;47.262;17.144;2023-08-06T02:34:29;98931.94;;;21.99;63.50
77281;BME280;66339;47.262;17.144;2023-08-06T02:37:24;98929.56;;;21.97;63.55
77281;BME280;66339;47.262;17.144;2023-08-06T02:49:14;98915.00;;;21.98;63.56
77281;BME280;66339;47.262;17.144;2023-08-06T03:27:30;98899.47;;;21.95;63.56
77281;BME280;66339;47.262;17.144;2023-08-06T03:33:15;98894.88;;;21.96;63.50
77281;BME280;66339;47.262;17.144;2023-08-06T03:38:48;98899.47;;;21.95;63.63
77281;BME280;66339;47.262;17.144;2023-08-06T04:02:23;98915.62;;;21.95;63.51
77281;BME280;66339;47.262;17.144;2023-08-06T04:05:21;98937.16;;;21.95;63.49
77281;BME280;66339;47.262;17.144;2023-08-06T04:07:52;98923.41;;;21.97;63.57
77281;BME280;66339;47.262;17.144;2023-08-06T04:13:20;98919.91;;;21.96;63.48
77281;BME280;66339;47.262;17.144;2023-08-06T04:16:00;98934.16;;;21.97;63.48
77281;BME280;66339;47.262;17.144;2023-08-06T04:18:37;98934.16;;;21.97;63.45
77281;BME280;66339;47.262;17.144;2023-08-06T04:21:07;98931.78;;;21.95;63.60
77281;BME280;66339;47.262;17.144;2023-08-06T04:32:41;98922.59;;;21.96;63.58
77281;BME280;66339;47.262;17.144;2023-08-06T04:52:37;98939.41;;;21.93;63.03
77281;BME280;66339;47.262;17.144;2023-08-06T05:04:35;98919.16;;;21.87;63.24
77281;BME280;66339;47.262;17.144;2023-08-06T05:07:13;98912.22;;;21.86;63.41
77281;BME280;66339;47.262;17.144;2023-08-06T05:09:45;98904.59;;;21.88;63.44
77281;BME280;66339;47.262;17.144;2023-08-06T05:12:15;98892.25;;;21.87;63.28
77281;BME280;66339;47.262;17.144;2023-08-06T05:14:48;98903.00;;;21.87;63.40
77281;BME280;66339;47.262;17.144;2023-08-06T05:17:18;98890.69;;;21.86;63.31
77281;BME280;66339;47.262;17.144;2023-08-06T05:19:45;98879.91;;;21.86;63.27
77281;BME280;66339;47.262;17.144;2023-08-06T05:22:12;98891.47;;;21.87;63.39
77281;BME280;66339;47.262;17.144;2023-08-06T05:24:43;98889.13;;;21.85;63.28
77281;BME280;66339;47.262;17.144;2023-08-06T05:27:11;98888.00;;;21.86;63.01
77281;BME280;66339;47.262;17.144;2023-08-06T05:47:11;98896.72;;;21.83;62.80
77281;BME280;66339;47.262;17.144;2023-08-06T05:52:32;98892.09;;;21.84;62.59
77281;BME280;66339;47.262;17.144;2023-08-06T05:55:09;98891.31;;;21.83;62.83
77281;BME280;66339;47.262;17.144;2023-08-06T05:57:41;98883.91;;;21.80;62.57
77281;BME280;66339;47.262;17.144;2023-08-06T06:00:20;98882.78;;;21.81;62.59
77281;BME280;66339;47.262;17.144;2023-08-06T06:02:55;98880.09;;;21.81;62.77
77281;BME280;66339;47.262;17.144;2023-08-06T06:05:39;98870.44;;;21.80;62.90
77281;BME280;66339;47.262;17.144;2023-08-06T06:08:14;98866.63;;;21.81;62.36
77281;BME280;66339;47.262;17.144;2023-08-06T06:13:38;98869.00;;;21.83;62.31
77281;BME280;66339;47.262;17.144;2023-08-06T06:19:15;98865.06;;;21.80;61.95
77281;BME280;66339;47.262;17.144;2023-08-06T06:24:37;98877.28;;;21.77;62.64
77281;BME280;66339;47.262;17.144;2023-08-06T06:41:08;98881.19;;;21.80;62.54
77281;BME280;66339;47.262;17.144;2023-08-06T06:48:54;98871.91;;;21.77;62.70
77281;BME280;66339;47.262;17.144;2023-08-06T06:51:25;98869.31;;;21.81;62.32
77281;BME280;66339;47.262;17.144;2023-08-06T06:59:35;98874.41;;;21.83;62.23
77281;BME280;66339;47.262;17.144;2023-08-06T07:02:13;98884.38;;;21.82;62.70
77281;BME280;66339;47.262;17.144;2023-08-06T07:07:35;98885.16;;;21.83;62.61
77281;BME280;66339;47.262;17.144;2023-08-06T07:10:04;98875.97;;;21.84;62.39
77281;BME280;66339;47.262;17.144;2023-08-06T07:12:40;98886.09;;;21.87;62.26
77281;BME280;66339;47.262;17.144;2023-08-06T07:21:11;98894.50;;;21.85;62.44
77281;BME280;66339;47.262;17.144;2023-08-06T07:23:58;98896.06;;;21.86;62.24
77281;BME280;66339;47.262;17.144;2023-08-06T07:26:33;98904.44;;;21.85;62.00
77281;BME280;66339;47.262;17.144;2023-08-06T07:29:01;98909.03;;;21.84;62.28
77281;BME280;66339;47.262;17.144;2023-08-06T07:31:34;98916.03;;;21.85;61.71
77281;BME280;66339;47.262;17.144;2023-08-06T07:34:20;98914.44;;;21.84;61.84
77281;BME280;66339;47.262;17.144;2023-08-06T07:36:58;98916.66;;;21.82;61.34
77281;BME280;66339;47.262;17.144;2023-08-06T07:39:26;98922.06;;;21.82;61.49
77281;BME280;66339;47.262;17.144;2023-08-06T07:42:01;98921.56;;;21.80;61.18
77281;BME280;66339;47.262;17.144;2023-08-06T07:45:03;98908.91;;;21.80;60.97
77281;BME280;66339;47.262;17.144;2023-08-06T07:47:36;98919.34;;;21.82;60.75
77281;BME280;66339;47.262;17.144;2023-08-06T07:52:34;98921.13;;;21.78;60.97
77281;BME280;66339;47.262;17.144;2023-08-06T07:58:03;98923.34;;;21.76;61.21
77281;BME280;66339;47.262;17.144;2023-08-06T08:00:38;98924.47;;;21.75;61.12
77281;BME280;66339;47.262;17.144;2023-08-06T08:03:22;98939.50;;;21.76;61.07
77281;BME280;66339;47.262;17.144;2023-08-06T08:08:43;98931.41;;;21.76;60.88
77281;BME280;66339;47.262;17.144;2023-08-06T08:11:14;98939.03;;;21.74;61.04
77281;BME280;66339;47.262;17.144;2023-08-06T08:13:46;98925.09;;;21.72;61.11
77281;BME280;66339;47.262;17.144;2023-08-06T08:16:17;98935.41;;;21.70;61.19
77281;BME280;66339;47.262;17.144;2023-08-06T08:18:54;98923.06;;;21.69;61.28
77281;BME280;66339;47.262;17.144;2023-08-06T08:21:22;98922.25;;;21.68;61.32
77281;BME280;66339;47.262;17.144;2023-08-06T08:23:58;98925.28;;;21.67;61.22
77281;BME280;66339;47.262;17.144;2023-08-06T08:26:36;98923.06;;;21.69;61.17
77281;BME280;66339;47.262;17.144;2023-08-06T08:29:27;98916.88;;;21.68;61.76
77281;BME280;66339;47.262;17.144;2023-08-06T08:32:00;98923.06;;;21.69;61.69
77281;BME280;66339;47.262;17.144;2023-08-06T08:34:34;98929.69;;;21.71;61.35
77281;BME280;66339;47.262;17.144;2023-08-06T08:37:20;98924.66;;;21.70;61.32
77281;BME280;66339;47.262;17.144;2023-08-06T08:39:59;98929.38;;;21.73;60.98
77281;BME280;66339;47.262;17.144;2023-08-06T08:42:28;98927.78;;;21.72;61.47
77281;BME280;66339;47.262;17.144;2023-08-06T08:45:00;98941.25;;;21.72;61.57
77281;BME280;66339;47.262;17.144;2023-08-06T08:47:46;98923.97;;;21.73;61.70
77281;BME280;66339;47.262;17.144;2023-08-06T08:50:17;98931.75;;;21.74;61.82
77281;BME280;66339;47.262;17.144;2023-08-06T08:52:58;98926.66;;;21.73;61.85
77281;BME280;66339;47.262;17.144;2023-08-06T08:55:24;98923.97;;;21.73;61.66
77281;BME280;66339;47.262;17.144;2023-08-06T08:57:56;98923.34;;;21.76;61.75
77281;BME280;66339;47.262;17.144;2023-08-06T09:00:34;98923.34;;;21.76;61.83
77281;BME280;66339;47.262;17.144;2023-08-06T09:05:54;98929.66;;;21.80;61.77
77281;BME280;66339;47.262;17.144;2023-08-06T09:08:26;98924.28;;;21.80;61.96
77281;BME280;66339;47.262;17.144;2023-08-06T09:11:01;98925.19;;;21.84;61.63
77281;BME280;66339;47.262;17.144;2023-08-06T09:13:31;98930.56;;;21.84;61.63
77281;BME280;66339;47.262;17.144;2023-08-06T09:16:06;98919.16;;;21.87;61.34
77281;BME280;66339;47.262;17.144;2023-08-06T09:18:34;98927.72;;;21.89;61.27
77281;BME280;66339;47.262;17.144;2023-08-06T09:21:16;98929.75;;;21.92;60.92
77281;BME280;66339;47.262;17.144;2023-08-06T09:23:48;98931.66;;;21.92;60.85
77281;BME280;66339;47.262;17.144;2023-08-06T09:26:18;98928.66;;;21.93;60.62
77281;BME280;66339;47.262;17.144;2023-08-06T09:28:52;98929.09;;;21.95;60.27
77281;BME280;66339;47.262;17.144;2023-08-06T09:31:32;98932.91;;;21.94;60.00
77281;BME280;66339;47.262;17.144;2023-08-06T09:34:06;98931.78;;;21.95;59.91
77281;BME280;66339;47.262;17.144;2023-08-06T09:36:46;98941.44;;;21.96;59.98
77281;BME280;66339;47.262;17.144;2023-08-06T09:39:35;98947.63;;;21.97;59.68
77281;BME280;66339;47.262;17.144;2023-08-06T09:45:12;98939.41;;;21.93;59.52
77281;BME280;66339;47.262;17.144;2023-08-06T09:47:43;98935.59;;;21.94;58.75
77281;BME280;66339;47.262;17.144;2023-08-06T09:50:17;98942.09;;;21.93;59.26
77281;BME280;66339;47.262;17.144;2023-08-06T09:52:50;98939.41;;;21.93;59.20
77281;BME280;66339;47.262;17.144;2023-08-06T09:55:18;98937.81;;;21.92;59.55
77281;BME280;66339;47.262;17.144;2023-08-06T09:57:48;98941.63;;;21.91;59.73
77281;BME280;66339;47.262;17.144;2023-08-06T10:00:19;98953.19;;;21.92;59.46
77281;BME280;66339;47.262;17.144;2023-08-06T10:02:47;98948.59;;;21.92;59.64
77281;BME280;66339;47.262;17.144;2023-08-06T10:08:21;98955.56;;;21.93;59.42
77281;BME280;66339;47.262;17.144;2023-08-06T10:10:48;98961.75;;;21.94;59.52
77281;BME280;66339;47.262;17.144;2023-08-06T10:13:17;98955.56;;;21.93;59.72
77281;BME280;66339;47.262;17.144;2023-08-06T10:15:51;98967.91;;;21.94;59.80
77281;BME280;66339;47.262;17.144;2023-08-06T10:18:22;98965.22;;;21.94;59.77
77281;BME280;66339;47.262;17.144;2023-08-06T10:20:53;98973.28;;;21.94;59.97
77281;BME280;66339;47.262;17.144;2023-08-06T10:23:32;98974.06;;;21.95;59.65
77281;BME280;66339;47.262;17.144;2023-08-06T10:26:06;98974.84;;;21.95;59.72
77281;BME280;66339;47.262;17.144;2023-08-06T10:28:37;98974.84;;;21.95;60.04
77281;BME280;66339;47.262;17.144;2023-08-06T10:31:08;98985.63;;;21.95;59.75
77281;BME280;66339;47.262;17.144;2023-08-06T10:33:41;98984.06;;;21.94;59.94
77281;BME280;66339;47.262;17.144;2023-08-06T10:36:11;98991.66;;;21.92;59.84
77281;BME280;66339;47.262;17.144;2023-08-06T10:38:45;98994.81;;;21.94;58.52
77281;BME280;66339;47.262;17.144;2023-08-06T10:44:11;98987.72;;;21.90;59.32
77281;BME280;66339;47.262;17.144;2023-08-06T10:46:42;98995.31;;;21.88;59.22
77281;BME280;66339;47.262;17.144;2023-08-06T10:52:14;99008.00;;;21.87;59.24
77281;BME280;66339;47.262;17.144;2023-08-06T10:54:45;99015.28;;;21.87;59.23
77281;BME280;66339;47.262;17.144;2023-08-06T10:57:15;99012.25;;;21.88;59.16
77281;BME280;66339;47.262;17.144;2023-08-06T10:59:45;99004.53;;;21.87;59.09
77281;BME280;66339;47.262;17.144;2023-08-06T11:02:22;99010.69;;;21.87;59.28
77281;BME280;66339;47.262;17.144;2023-08-06T11:07:39;99023.03;;;21.88;59.28
77281;BME280;66339;47.262;17.144;2023-08-06T11:10:12;99030.00;;;21.89;59.50
77281;BME280;66339;47.262;17.144;2023-08-06T11:12:39;99030.00;;;21.89;59.56
77281;BME280;66339;47.262;17.144;2023-08-06T11:15:12;99036.19;;;21.90;59.47
77281;BME280;66339;47.262;17.144;2023-08-06T11:20:24;99036.97;;;21.90;59.53
77281;BME280;66339;47.262;17.144;2023-08-06T11:22:52;99046.63;;;21.91;59.54
77281;BME280;66339;47.262;17.144;2023-08-06T11:25:22;99054.69;;;21.91;59.39
77281;BME280;66339;47.262;17.144;2023-08-06T11:27:51;99065.47;;;21.91;59.58
77281;BME280;66339;47.262;17.144;2023-08-06T11:30:19;99050.88;;;21.92;59.47
77281;BME280;66339;47.262;17.144;2023-08-06T11:32:46;99054.69;;;21.91;59.44
77281;BME280;66339;47.262;17.144;2023-08-06T11:35:19;99060.88;;;21.92;59.64
77281;BME280;66339;47.262;17.144;2023-08-06T11:37:46;99054.69;;;21.91;59.71
77281;BME280;66339;47.262;17.144;2023-08-06T11:40:14;99065.47;;;21.91;59.71
77281;BME280;66339;47.262;17.144;2023-08-06T11:42:41;99057.38;;;21.91;59.59
77281;BME280;66339;47.262;17.144;2023-08-06T11:45:12;99059.75;;;21.93;59.56
77281;BME280;66339;47.262;17.144;2023-08-06T11:47:39;99062.44;;;21.93;59.67
77281;BME280;66339;47.262;17.144;2023-08-06T11:50:06;99070.50;;;21.93;59.58
77281;BME280;66339;47.262;17.144;2023-08-06T11:52:34;99076.72;;;21.93;59.58
77281;BME280;66339;47.262;17.144;2023-08-06T11:55:04;99084.78;;;21.93;59.53
77281;BME280;66339;47.262;17.144;2023-08-06T11:57:31;99089.34;;;21.93;59.52
77281;BME280;66339;47.262;17.144;2023-08-06T12:00:09;99099.34;;;21.92;59.64
77281;BME280;66339;47.262;17.144;2023-08-06T12:02:41;99092.88;;;21.93;59.43
77281;BME280;66339;47.262;17.144;2023-08-06T12:05:13;99096.66;;;21.92;59.24
77281;BME280;66339;47.262;17.144;2023-08-06T12:07:55;99106.16;;;21.90;59.22
77281;BME280;66339;47.262;17.144;2023-08-06T12:10:23;99110.28;;;21.87;59.19
77281;BME280;66339;47.262;17.144;2023-08-06T12:12:54;99108.72;;;21.86;59.65
77281;BME280;66339;47.262;17.144;2023-08-06T12:15:21;99102.84;;;21.84;59.14
77281;BME280;66339;47.262;17.144;2023-08-06T12:17:49;99112.03;;;21.83;59.81
77281;BME280;66339;47.262;17.144;2023-08-06T12:20:15;99105.09;;;21.82;59.37
77281;BME280;66339;47.262;17.144;2023-08-06T12:22:43;99103.03;;;21.79;59.31
77281;BME280;66339;47.262;17.144;2023-08-06T12:25:10;99102.53;;;21.77;59.62
77281;BME280;66339;47.262;17.144;2023-08-06T12:27:43;99105.22;;;21.77;59.60
77281;BME280;66339;47.262;17.144;2023-08-06T12:30:14;99102.53;;;21.77;59.71
77281;BME280;66339;47.262;17.144;2023-08-06T12:32:41;99102.53;;;21.77;59.79
77281;BME280;66339;47.262;17.144;2023-08-06T12:35:11;99100.97;;;21.76;59.73
77281;BME280;66339;47.262;17.144;2023-08-06T12:37:41;99104.78;;;21.75;59.68
77281;BME280;66339;47.262;17.144;2023-08-06T12:40:09;99100.50;;;21.74;59.91
77281;BME280;66339;47.262;17.144;2023-08-06T12:42:55;99105.41;;;21.72;60.30
77281;BME280;66339;47.262;17.144;2023-08-06T12:45:25;99101.13;;;21.71;60.33
77281;BME280;66339;47.262;17.144;2023-08-06T12:47:52;99107.66;;;21.70;60.38
77281;BME280;66339;47.262;17.144;2023-08-06T12:50:22;99104.94;;;21.70;60.63
77281;BME280;66339;47.262;17.144;2023-08-06T12:52:50;99102.25;;;21.70;60.57
77281;BME280;66339;47.262;17.144;2023-08-06T12:55:17;99113.03;;;21.70;60.79
77281;BME280;66339;47.262;17.144;2023-08-06T12:57:45;99130.75;;;21.71;60.57
77281;BME280;66339;47.262;17.144;2023-08-06T13:00:23;99129.16;;;21.70;60.56
77281;BME280;66339;47.262;17.144;2023-08-06T13:02:49;99129.81;;;21.67;60.57
77281;BME280;66339;47.262;17.144;2023-08-06T13:05:21;99133.63;;;21.66;60.80
77281;BME280;66339;47.262;17.144;2023-08-06T13:07:51;99131.22;;;21.64;61.25
77281;BME280;66339;47.262;17.144;2023-08-06T13:10:24;99131.22;;;21.64;61.61
77281;BME280;66339;47.262;17.144;2023-08-06T13:12:51;99126.63;;;21.65;61.83
77281;BME280;66339;47.262;17.144;2023-08-06T13:15:20;99126.63;;;21.65;62.05
77281;BME280;66339;47.262;17.144;2023-08-06T13:17:47;99132.00;;;21.65;62.85
77281;BME280;66339;47.262;17.144;2023-08-06T13:20:17;99133.63;;;21.66;62.54
77281;BME280;66339;47.262;17.144;2023-08-06T13:22:46;99124.25;;;21.63;62.45
77281;BME280;66339;47.262;17.144;2023-08-06T13:25:13;99120.16;;;21.66;62.41
77281;BME280;66339;47.262;17.144;2023-08-06T13:27:40;99127.41;;;21.65;62.88
77281;BME280;66339;47.262;17.144;2023-08-06T13:30:07;99113.16;;;21.65;63.01
77281;BME280;66339;47.262;17.144;2023-08-06T13:32:35;99130.59;;;21.67;62.61
77281;BME280;66339;47.262;17.144;2023-08-06T13:35:05;99131.87;;;21.70;62.40
77281;BME280;66339;47.262;17.144;2023-08-06T13:37:34;99132.66;;;21.70;62.23
77281;BME280;66339;47.262;17.144;2023-08-06T13:40:08;99135.50;;;21.74;61.85
77281;BME280;66339;47.262;17.144;2023-08-06T13:42:35;99137.06;;;21.75;61.60
77281;BME280;66339;47.262;17.144;2023-08-06T13:47:35;99130.41;;;21.81;61.32
77281;BME280;66339;47.262;17.144;2023-08-06T13:50:08;99135.94;;;21.85;61.22
77281;BME280;66339;47.262;17.144;2023-08-06T13:52:35;99130.69;;;21.88;61.09
77281;BME280;66339;47.262;17.144;2023-08-06T13:55:03;99138.47;;;21.90;60.98
77281;BME280;66339;47.262;17.144;2023-08-06T13:57:30;99130.84;;;21.92;60.87
77281;BME280;66339;47.262;17.144;2023-08-06T14:00:00;99137.81;;;21.93;60.80
77281;BME280;66339;47.262;17.144;2023-08-06T14:02:33;99139.41;;;21.94;60.87
77281;BME280;66339;47.262;17.144;2023-08-06T14:05:07;99128.31;;;21.95;61.03
77281;BME280;66339;47.262;17.144;2023-08-06T14:07:34;99133.41;;;21.97;61.08
77281;BME280;66339;47.262;17.144;2023-08-06T14:10:04;99123.41;;;21.97;60.96
77281;BME280;66339;47.262;17.144;2023-08-06T14:12:32;99132.72;;;22.00;60.91
77281;BME280;66339;47.262;17.144;2023-08-06T14:15:03;99119.28;;;22.00;60.92
77281;BME280;66339;47.262;17.144;2023-08-06T14:17:33;99121.66;;;22.01;61.09
77281;BME280;66339;47.262;17.144;2023-08-06T14:20:01;99125.13;;;22.02;61.14
77281;BME280;66339;47.262;17.144;2023-08-06T14:22:29;99130.19;;;22.03;61.25
77281;BME280;66339;47.262;17.144;2023-08-06T14:24:58;99129.06;;;22.04;61.02
77281;BME280;66339;47.262;17.144;2023-08-06T14:27:29;99126.88;;;22.06;60.66
77281;BME280;66339;47.262;17.144;2023-08-06T14:30:00;99126.06;;;22.06;60.68
77281;BME280;66339;47.262;17.144;2023-08-06T14:32:27;99125.75;;;22.08;60.51
77281;BME280;66339;47.262;17.144;2023-08-06T14:35:02;99128.44;;;22.08;60.37
77281;BME280;66339;47.262;17.144;2023-08-06T14:37:29;99127.66;;;22.07;60.04
77281;BME280;66339;47.262;17.144;2023-08-06T14:39:59;99134.59;;;22.08;59.66
77281;BME280;66339;47.262;17.144;2023-08-06T14:42:28;99133.53;;;22.09;59.33
77281;BME280;66339;47.262;17.144;2023-08-06T14:44:55;99136.22;;;22.09;59.34
77281;BME280;66339;47.262;17.144;2023-08-06T14:47:22;99130.50;;;22.11;59.21
77281;BME280;66339;47.262;17.144;2023-08-06T14:49:55;99140.81;;;22.09;59.07
77281;BME280;66339;47.262;17.144;2023-08-06T14:52:26;99136.22;;;22.09;59.07
77281;BME280;66339;47.262;17.144;2023-08-06T14:54:55;99138.56;;;22.11;58.87
77281;BME280;66339;47.262;17.144;2023-08-06T15:05:51;99127.81;;;22.11;59.26
77281;BME280;66339;47.262;17.144;2023-08-06T15:08:18;99139.34;;;22.11;59.29
77281;BME280;66339;47.262;17.144;2023-08-06T15:10:51;99138.56;;;22.11;59.34
77281;BME280;66339;47.262;17.144;2023-08-06T15:13:22;99133.19;;;22.11;59.31
77281;BME280;66339;47.262;17.144;2023-08-06T15:15:53;99133.19;;;22.11;59.22
77281;BME280;66339;47.262;17.144;2023-08-06T15:18:26;99145.88;;;22.10;59.10
77281;BME280;66339;47.262;17.144;2023-08-06T15:20:56;99142.84;;;22.12;59.11
77281;BME280;66339;47.262;17.144;2023-08-06T15:23:26;99147.13;;;22.13;59.12
77281;BME280;66339;47.262;17.144;2023-08-06T15:25:56;99144.75;;;22.11;59.05
77281;BME280;66339;47.262;17.144;2023-08-06T15:28:23;99147.13;;;22.13;59.02
77281;BME280;66339;47.262;17.144;2023-08-06T15:30:52;99149.81;;;22.13;59.10
77281;BME280;66339;47.262;17.144;2023-08-06T15:33:21;99146.31;;;22.12;58.94
77281;BME280;66339;47.262;17.144;2023-08-06T15:35:51;99152.03;;;22.11;58.96
77281;BME280;66339;47.262;17.144;2023-08-06T15:38:18;99158.72;;;22.13;59.03
77281;BME280;66339;47.262;17.144;2023-08-06T15:40:45;99168.69;;;22.13;59.01
77281;BME280;66339;47.262;17.144;2023-08-06T15:43:12;99174.06;;;22.13;58.73
77281;BME280;66339;47.262;17.144;2023-08-06T15:45:43;99175.66;;;22.14;58.82
77281;BME280;66339;47.262;17.144;2023-08-06T15:48:13;99174.06;;;22.13;58.91
77281;BME280;66339;47.262;17.144;2023-08-06T15:50:43;99172.47;;;22.12;58.90
77281;BME280;66339;47.262;17.144;2023-08-06T15:53:15;99161.69;;;22.12;58.88
77281;BME280;66339;47.262;17.144;2023-08-06T15:55:43;99177.06;;;22.11;58.80
77281;BME280;66339;47.262;17.144;2023-08-06T15:58:09;99170.87;;;22.11;58.71
77281;BME280;66339;47.262;17.144;2023-08-06T16:00:36;99168.19;;;22.11;58.72
77281;BME280;66339;47.262;17.144;2023-08-06T16:03:06;99177.06;;;22.11;58.55
77281;BME280;66339;47.262;17.144;2023-08-06T16:05:34;99192.44;;;22.11;58.31
77281;BME280;66339;47.262;17.144;2023-08-06T16:08:01;99198.59;;;22.11;58.28
77281;BME280;66339;47.262;17.144;2023-08-06T16:10:29;99194.00;;;22.12;58.38
77281;BME280;66339;47.262;17.144;2023-08-06T16:12:59;99201.00;;;22.13;58.41
77281;BME280;66339;47.262;17.144;2023-08-06T16:15:28;99202.09;;;22.12;58.41
77281;BME280;66339;47.262;17.144;2023-08-06T16:17:55;99208.59;;;22.11;58.40
77281;BME280;66339;47.262;17.144;2023-08-06T16:20:21;99211.28;;;22.11;58.30
77281;BME280;66339;47.262;17.144;2023-08-06T16:22:49;99207.81;;;22.10;58.30
77281;BME280;66339;47.262;17.144;2023-08-06T16:25:17;99211.59;;;22.09;58.42
77281;BME280;66339;47.262;17.144;2023-08-06T16:27:44;99213.53;;;22.09;58.33
77281;BME280;66339;47.262;17.144;2023-08-06T16:30:15;99209.22;;;22.08;58.26
77281;BME280;66339;47.262;17.144;2023-08-06T16:32:43;99211.59;;;22.09;58.46
77281;BME280;66339;47.262;17.144;2023-08-06T16:35:10;99205.75;;;22.07;58.47
77281;BME280;66339;47.262;17.144;2023-08-06T16:37:37;99212.25;;;22.06;58.31
77281;BME280;66339;47.262;17.144;2023-08-06T16:40:04;99211.91;;;22.08;58.57
77281;BME280;66339;47.262;17.144;2023-08-06T16:42:32;99214.59;;;22.08;58.95
77281;BME280;66339;47.262;17.144;2023-08-06T16:44:59;99219.06;;;22.03;58.36
77281;BME280;66339;47.262;17.144;2023-08-06T16:47:26;99217.13;;;22.04;58.97
77281;BME280;66339;47.262;17.144;2023-08-06T16:49:55;99224.13;;;22.05;59.30
77281;BME280;66339;47.262;17.144;2023-08-06T16:52:22;99231.41;;;22.04;59.32
77281;BME280;66339;47.262;17.144;2023-08-06T16:54:49;99231.41;;;22.04;59.50
77281;BME280;66339;47.262;17.144;2023-08-06T16:57:19;99236.78;;;22.04;59.57
77281;BME280;66339;47.262;17.144;2023-08-06T16:59:46;99227.62;;;22.05;59.76
77281;BME280;66339;47.262;17.144;2023-08-06T17:02:14;99227.62;;;22.05;59.53
77281;BME280;66339;47.262;17.144;2023-08-06T17:04:52;99226.81;;;22.05;59.72
77281;BME280;66339;47.262;17.144;2023-08-06T17:07:23;99222.84;;;22.02;59.77
77281;BME280;66339;47.262;17.144;2023-08-06T17:09:50;99218.59;;;22.01;60.23
77281;BME280;66339;47.262;17.144;2023-08-06T17:12:20;99226.66;;;22.01;60.15
77281;BME280;66339;47.262;17.144;2023-08-06T17:14:51;99226.34;;;22.03;60.47
77281;BME280;66339;47.262;17.144;2023-08-06T17:17:21;99219.06;;;22.03;60.74
77281;BME280;66339;47.262;17.144;2023-08-06T17:19:52;99230.59;;;22.04;60.58
77281;BME280;66339;47.262;17.144;2023-08-06T17:22:19;99228.25;;;22.02;60.89
77281;BME280;66339;47.262;17.144;2023-08-06T17:24:50;99233.63;;;22.02;61.07
77281;BME280;66339;47.262;17.144;2023-08-06T17:27:18;99234.41;;;22.03;60.93
77281;BME280;66339;47.262;17.144;2023-08-06T17:29:53;99235.19;;;22.03;61.26
77281;BME280;66339;47.262;17.144;2023-08-06T17:32:20;99239.81;;;22.03;61.11
77281;BME280;66339;47.262;17.144;2023-08-06T17:34:54;99251.34;;;22.03;61.42
77281;BME280;66339;47.262;17.144;2023-08-06T17:37:22;99255.97;;;22.03;61.28
77281;BME280;66339;47.262;17.144;2023-08-06T17:39:53;99257.38;;;22.00;61.35
77281;BME280;66339;47.262;17.144;2023-08-06T17:42:23;99262.75;;;22.00;61.40
77281;BME280;66339;47.262;17.144;2023-08-06T17:44:53;99258.97;;;22.01;61.51
77281;BME280;66339;47.262;17.144;2023-08-06T17:47:20;99274.34;;;22.01;61.51
77281;BME280;66339;47.262;17.144;2023-08-06T17:50:06;99270.53;;;22.02;61.59
77281;BME280;66339;47.262;17.144;2023-08-06T17:52:37;99269.75;;;22.01;61.71
77281;BME280;66339;47.262;17.144;2023-08-06T17:55:04;99280.97;;;22.03;61.83
77281;BME280;66339;47.262;17.144;2023-08-06T17:57:38;99277.16;;;22.04;61.46
77281;BME280;66339;47.262;17.144;2023-08-06T18:00:08;99278.00;;;22.05;61.50
77281;BME280;66339;47.262;17.144;2023-08-06T18:02:36;99282.09;;;22.02;61.73
77281;BME280;66339;47.262;17.144;2023-08-06T18:05:04;99280.97;;;22.03;61.69
77281;BME280;66339;47.262;17.144;2023-08-06T18:07:31;99281.47;;;22.05;61.59
77281;BME280;66339;47.262;17.144;2023-08-06T18:10:00;99290.63;;;22.04;61.44
77281;BME280;66339;47.262;17.144;2023-08-06T18:12:29;99299.81;;;22.03;61.38
77281;BME280;66339;47.262;17.144;2023-08-06T18:14:59;99299.81;;;22.03;61.27